Keene, NH (03431)

3:14 AM EST on December 11, 2016 (GMT -0500)
N. Swanzey | | Change Station
Active Advisory: Winter Storm Watch

Elev 505 ft 42.91 °N, 72.27 °W | Updated 2 seconds ago

Clear
Clear
3.2 °F
Feels Like 3 °F
N
0.0
Wind Variable Wind from WNW

Today
High -- | Low -- °F
--% Chance of Precip.
Yesterday
High -- | Low -- °F
Precip. -- in
Pressure 30.51 in
Visibility 10.0 miles
Clouds Clear
Windchill 3 °F
Dew Point 2 °F
Humidity 93%
Rainfall 0.00 in
Snow Depth Not available.
7:10 AM 4:14 PM
Waxing Gibbous, 90% visible
METAR KEEN 110756Z AUTO 00000KT 10SM CLR M15/M17 A3044 RMK AO2 SLP330 P0001 T11501167 FZRANO
Pressure 30.51 in
Visibility 10.0 miles
Clouds Clear
Windchill 3 °F
Dew Point 2 °F
Humidity 93%
Rainfall 0.00 in
Snow Depth Not available.
7:10 AM 4:14 PM
Waxing Gibbous, 90% visible
METAR KEEN 110756Z AUTO 00000KT 10SM CLR M15/M17 A3044 RMK AO2 SLP330 P0001 T11501167 FZRANO

10-Day Weather Forecast

Almanac

Astronomy

Dec. 11, 2016 Rise Set
Actual Time
Civil Twilight
Nautical Twilight
Astronomical Twilight
Moon
Length of Visible Light
Length of Day
Tomorrow will be .
, % of the Moon is Illuminated

Today's Extremes

State Highs State Lows

Community

WunderPhotos

Upload Photos

1,956,706 photos uploaded!

WunderBlog® & News

Nearby

Air Quality

  Air Quality AQ Index Pollutant
Not available.

Snow Depth

Station Depth Elevation

Earthquake Activity

City Distance Mag. Time & Date
Minimum magnitude displayed is 2.5.

Coastal Water Temperatures

Place Temperature

Stations

Nearby Weather Stations

Station Location Temp. Windchill Dew Point Humidity Wind Precip. Elev Updated Type
                   

Watches & Warnings

Winter Storm Watch
Issued: 9:50 PM EST Dec. 10, 2016 – National Weather Service

... Winter Storm Watch remains in effect from Sunday evening
through Monday evening...

* hazard types... snow. Snow may be heavy at times Monday morning
hours Monday and mix with or change to sleet in the afternoon.

* Accumulations... snow accumulation of 5 to 8 inches... along
with around a trace of ice.

* Timing... snow will begin late Sunday night and continue
through Monday.

* Impacts... snow will make for hazardous travel conditions

* winds... east 5 to 10 mph.

* Temperatures... in the mid to upper 20s.

* Visibilities... one quarter mile or less at times.

Precautionary/preparedness actions...

A Winter Storm Watch means there is a potential for significant
snow... sleet... or ice accumulations that may impact travel.
Continue to monitor the latest forecasts.